Phoenix Cross — MRBQ7 — position and weather

sailwx.info

Track history (hours):
 
Tides and Currents Weather Stations Pressure Air Temp Water Temp Dewpoint Dewpoint Depression Visibility Wind Speed Wind Dir Waves Ship Positions

Phoenix Cross

Last reported at 2015-Jul-29 06:13 UTC. Time now 2015-Jul-31 05:08 UTC.
Position N 54°38' W 001°10'.

Length 30 m; draft 5 m.

Type: Ship. MMSI: 235067452.

Date/timePositionNaut miles runAvg speedWind from/ knotsBaromVisibWave heightAir tempDewpointWater temp
2015-Jul-29 06:13N 54°38' W 001°10'2 0.1
2015-Jul-28 11:12N 54°36' W 001°10'2 3.4
2015-Jul-28 10:33N 54°35' W 001°13'0 0.0
2015-Jul-28 09:33N 54°35' W 001°13'0 0.0
2015-Jul-28 08:33N 54°35' W 001°13'0 0.0
2015-Jul-28 07:33N 54°35' W 001°13'0 0.0
2015-Jul-28 06:33N 54°35' W 001°13'0 0.0
2015-Jul-28 05:31N 54°35' W 001°13'3 0.2
2015-Jul-27 10:33N 54°38' W 001°09'3 3.2
2015-Jul-27 09:31N 54°35' W 001°13'0 0.0
2015-Jul-27 08:33N 54°35' W 001°13'0 0.0
2015-Jul-27 07:32N 54°35' W 001°13'0 0.0
2015-Jul-27 06:33N 54°35' W 001°13'0 0.0
2015-Jul-27 05:28N 54°35' W 001°13'3 0.1
2015-Jul-25 06:33N 54°38' W 001°10'3 0.2
2015-Jul-24 15:33N 54°35' W 001°13'0 0.0
2015-Jul-24 14:32N 54°35' W 001°13'0 0.0
2015-Jul-24 13:33N 54°35' W 001°13'0 0.0
2015-Jul-24 12:31N 54°35' W 001°13'0 0.0
2015-Jul-24 11:33N 54°35' W 001°13'0 0.0
2015-Jul-24 10:33N 54°35' W 001°13'0 0.0
2015-Jul-24 09:33N 54°35' W 001°13'0 0.0
2015-Jul-24 08:33N 54°35' W 001°13'0 0.0
2015-Jul-24 07:33N 54°35' W 001°13'0 0.0
2015-Jul-24 06:33N 54°35' W 001°13'0 0.0
2015-Jul-24 05:33N 54°35' W 001°13'0 0.0
2015-Jul-24 04:33N 54°35' W 001°13'0 0.0
2015-Jul-23 23:32N 54°35' W 001°13'0 0.0
2015-Jul-23 22:32N 54°35' W 001°13'0 0.0
2015-Jul-23 20:28N 54°35' W 001°13'1 0.6
2015-Jul-23 19:31N 54°35' W 001°12'1 0.6
2015-Jul-23 18:33N 54°35' W 001°13'0 0.0
2015-Jul-23 17:32N 54°35' W 001°13'2 1.6
2015-Jul-23 16:33N 54°36' W 001°11'2 1.5
2015-Jul-23 15:33N 54°35' W 001°13'0 0.0
2015-Jul-23 14:32N 54°35' W 001°13'0 0.0
2015-Jul-23 13:32N 54°35' W 001°13'0 0.0
2015-Jul-23 12:31N 54°35' W 001°13'0 0.0
2015-Jul-23 11:32N 54°35' W 001°13'0 0.0
2015-Jul-23 10:32N 54°35' W 001°13'0 0.0
2015-Jul-23 09:33N 54°35' W 001°13'0 0.0
2015-Jul-23 08:33N 54°35' W 001°13'0 0.0
2015-Jul-23 07:33N 54°35' W 001°13'0 0.0
2015-Jul-23 06:33N 54°35' W 001°13'0 0.0
2015-Jul-23 05:33N 54°35' W 001°13'0 0.0
2015-Jul-22 16:32N 54°35' W 001°13'0 0.0
2015-Jul-22 15:33N 54°35' W 001°13'0 0.0
2015-Jul-22 14:33N 54°35' W 001°13'0 0.0
2015-Jul-22 13:32N 54°35' W 001°13'0 0.0
2015-Jul-22 12:33N 54°35' W 001°13'0 0.0
2015-Jul-22 11:30N 54°35' W 001°13'0 0.0
2015-Jul-22 10:33N 54°35' W 001°13'0 0.0
2015-Jul-22 09:33N 54°35' W 001°13'0 0.0
2015-Jul-22 08:31N 54°35' W 001°13'0 0.0
2015-Jul-22 07:33N 54°35' W 001°13'0 0.0
2015-Jul-22 06:33N 54°35' W 001°13'0 0.0
2015-Jul-22 05:33N 54°35' W 001°13'4 0.4
2015-Jul-21 18:15N 54°38' W 001°09'4 2.4
2015-Jul-21 16:31N 54°35' W 001°13'0 0.0
2015-Jul-21 15:33N 54°35' W 001°13'0 0.0
2015-Jul-21 14:33N 54°35' W 001°13'3 3.1
2015-Jul-21 13:33N 54°37' W 001°09'1 1.0
2015-Jul-21 12:33N 54°36' W 001°10'2 2.1
2015-Jul-21 11:29N 54°35' W 001°13'0 0.0
2015-Jul-21 10:33N 54°35' W 001°13'0 0.0
2015-Jul-21 09:33N 54°35' W 001°13'0 0.0
2015-Jul-21 08:33N 54°35' W 001°13'0 0.0
2015-Jul-21 07:33N 54°35' W 001°13'0 0.0
2015-Jul-21 06:33N 54°35' W 001°13'0 0.0
2015-Jul-21 05:33N 54°35' W 001°13'6 0.6
2015-Jul-20 19:28N 54°40' W 001°08'0 0.2
2015-Jul-20 17:24N 54°39' W 001°08'5 5.5
2015-Jul-20 16:27N 54°35' W 001°13'0 0.0
2015-Jul-20 15:33N 54°35' W 001°13'0 0.0
2015-Jul-20 14:33N 54°35' W 001°13'0 0.0
2015-Jul-20 13:33N 54°35' W 001°13'0 0.0
2015-Jul-20 12:33N 54°35' W 001°13'0 0.0
2015-Jul-20 11:32N 54°35' W 001°13'0 0.0
2015-Jul-20 10:32N 54°35' W 001°13'0 0.0
2015-Jul-20 09:33N 54°35' W 001°13'0 0.0
2015-Jul-20 08:33N 54°35' W 001°13'0 0.0
2015-Jul-20 07:33N 54°35' W 001°13'0 0.2
2015-Jul-20 06:33N 54°35' W 001°12'7 6.5
2015-Jul-20 05:33N 54°41' W 001°11'3 2.6
2015-Jul-20 04:32N 54°39' W 001°08'2 0.2
2015-Jul-19 17:31N 54°41' W 001°10'6 2.0
2015-Jul-19 14:31N 54°35' W 001°13'0 0.0
2015-Jul-19 13:32N 54°35' W 001°13'0 0.0
2015-Jul-19 12:33N 54°35' W 001°13'0 0.0
2015-Jul-19 11:33N 54°35' W 001°13'0 0.0
2015-Jul-19 10:33N 54°35' W 001°13'0 0.0
2015-Jul-19 09:33N 54°35' W 001°13'0 0.0
2015-Jul-19 08:33N 54°35' W 001°13'3 3.1
2015-Jul-19 07:33N 54°37' W 001°10'1 1.5
2015-Jul-19 06:33N 54°39' W 001°09'  
Track history (hours):
 
Tides and Currents Weather Stations Pressure Air Temp Water Temp Dewpoint Dewpoint Depression Visibility Wind Speed Wind Dir Waves Ship Positions

Phoenix Cross

Last reported at 2015-Jul-29 06:13 UTC. Time now 2015-Jul-31 05:08 UTC.
Position N 54°38' W 001°10'.

Length 30 m; draft 5 m.

Type: Ship. MMSI: 235067452.

Date/timePositionNaut miles runAvg speedWind from/ knotsBaromVisibWave heightAir tempDewpointWater temp
2015-Jul-29 06:13N 54°38' W 001°10'2 0.1
2015-Jul-28 11:12N 54°36' W 001°10'2 3.4
2015-Jul-28 10:33N 54°35' W 001°13'0 0.0
2015-Jul-28 09:33N 54°35' W 001°13'0 0.0
2015-Jul-28 08:33N 54°35' W 001°13'0 0.0
2015-Jul-28 07:33N 54°35' W 001°13'0 0.0
2015-Jul-28 06:33N 54°35' W 001°13'0 0.0
2015-Jul-28 05:31N 54°35' W 001°13'3 0.2
2015-Jul-27 10:33N 54°38' W 001°09'3 3.2
2015-Jul-27 09:31N 54°35' W 001°13'0 0.0
2015-Jul-27 08:33N 54°35' W 001°13'0 0.0
2015-Jul-27 07:32N 54°35' W 001°13'0 0.0
2015-Jul-27 06:33N 54°35' W 001°13'0 0.0
2015-Jul-27 05:28N 54°35' W 001°13'3 0.1
2015-Jul-25 06:33N 54°38' W 001°10'3 0.2
2015-Jul-24 15:33N 54°35' W 001°13'0 0.0
2015-Jul-24 14:32N 54°35' W 001°13'0 0.0
2015-Jul-24 13:33N 54°35' W 001°13'0 0.0
2015-Jul-24 12:31N 54°35' W 001°13'0 0.0
2015-Jul-24 11:33N 54°35' W 001°13'0 0.0
2015-Jul-24 10:33N 54°35' W 001°13'0 0.0
2015-Jul-24 09:33N 54°35' W 001°13'0 0.0
2015-Jul-24 08:33N 54°35' W 001°13'0 0.0
2015-Jul-24 07:33N 54°35' W 001°13'0 0.0
2015-Jul-24 06:33N 54°35' W 001°13'0 0.0
2015-Jul-24 05:33N 54°35' W 001°13'0 0.0
2015-Jul-24 04:33N 54°35' W 001°13'0 0.0
2015-Jul-23 23:32N 54°35' W 001°13'0 0.0
2015-Jul-23 22:32N 54°35' W 001°13'0 0.0
2015-Jul-23 20:28N 54°35' W 001°13'1 0.6
2015-Jul-23 19:31N 54°35' W 001°12'1 0.6
2015-Jul-23 18:33N 54°35' W 001°13'0 0.0
2015-Jul-23 17:32N 54°35' W 001°13'2 1.6
2015-Jul-23 16:33N 54°36' W 001°11'2 1.5
2015-Jul-23 15:33N 54°35' W 001°13'0 0.0
2015-Jul-23 14:32N 54°35' W 001°13'0 0.0
2015-Jul-23 13:32N 54°35' W 001°13'0 0.0
2015-Jul-23 12:31N 54°35' W 001°13'0 0.0
2015-Jul-23 11:32N 54°35' W 001°13'0 0.0
2015-Jul-23 10:32N 54°35' W 001°13'0 0.0
2015-Jul-23 09:33N 54°35' W 001°13'0 0.0
2015-Jul-23 08:33N 54°35' W 001°13'0 0.0
2015-Jul-23 07:33N 54°35' W 001°13'0 0.0
2015-Jul-23 06:33N 54°35' W 001°13'0 0.0
2015-Jul-23 05:33N 54°35' W 001°13'0 0.0
2015-Jul-22 16:32N 54°35' W 001°13'0 0.0
2015-Jul-22 15:33N 54°35' W 001°13'0 0.0
2015-Jul-22 14:33N 54°35' W 001°13'0 0.0
2015-Jul-22 13:32N 54°35' W 001°13'0 0.0
2015-Jul-22 12:33N 54°35' W 001°13'0 0.0
2015-Jul-22 11:30N 54°35' W 001°13'0 0.0
2015-Jul-22 10:33N 54°35' W 001°13'0 0.0
2015-Jul-22 09:33N 54°35' W 001°13'0 0.0
2015-Jul-22 08:31N 54°35' W 001°13'0 0.0
2015-Jul-22 07:33N 54°35' W 001°13'0 0.0
2015-Jul-22 06:33N 54°35' W 001°13'0 0.0
2015-Jul-22 05:33N 54°35' W 001°13'4 0.4
2015-Jul-21 18:15N 54°38' W 001°09'4 2.4
2015-Jul-21 16:31N 54°35' W 001°13'0 0.0
2015-Jul-21 15:33N 54°35' W 001°13'0 0.0
2015-Jul-21 14:33N 54°35' W 001°13'3 3.1
2015-Jul-21 13:33N 54°37' W 001°09'1 1.0
2015-Jul-21 12:33N 54°36' W 001°10'2 2.1
2015-Jul-21 11:29N 54°35' W 001°13'0 0.0
2015-Jul-21 10:33N 54°35' W 001°13'0 0.0
2015-Jul-21 09:33N 54°35' W 001°13'0 0.0
2015-Jul-21 08:33N 54°35' W 001°13'0 0.0
2015-Jul-21 07:33N 54°35' W 001°13'0 0.0
2015-Jul-21 06:33N 54°35' W 001°13'0 0.0
2015-Jul-21 05:33N 54°35' W 001°13'6 0.6
2015-Jul-20 19:28N 54°40' W 001°08'0 0.2
2015-Jul-20 17:24N 54°39' W 001°08'5 5.5
2015-Jul-20 16:27N 54°35' W 001°13'0 0.0
2015-Jul-20 15:33N 54°35' W 001°13'0 0.0
2015-Jul-20 14:33N 54°35' W 001°13'0 0.0
2015-Jul-20 13:33N 54°35' W 001°13'0 0.0
2015-Jul-20 12:33N 54°35' W 001°13'0 0.0
2015-Jul-20 11:32N 54°35' W 001°13'0 0.0
2015-Jul-20 10:32N 54°35' W 001°13'0 0.0
2015-Jul-20 09:33N 54°35' W 001°13'0 0.0
2015-Jul-20 08:33N 54°35' W 001°13'0 0.0
2015-Jul-20 07:33N 54°35' W 001°13'0 0.2
2015-Jul-20 06:33N 54°35' W 001°12'7 6.5
2015-Jul-20 05:33N 54°41' W 001°11'3 2.6
2015-Jul-20 04:32N 54°39' W 001°08'2 0.2
2015-Jul-19 17:31N 54°41' W 001°10'6 2.0
2015-Jul-19 14:31N 54°35' W 001°13'0 0.0
2015-Jul-19 13:32N 54°35' W 001°13'0 0.0
2015-Jul-19 12:33N 54°35' W 001°13'0 0.0
2015-Jul-19 11:33N 54°35' W 001°13'0 0.0
2015-Jul-19 10:33N 54°35' W 001°13'0 0.0
2015-Jul-19 09:33N 54°35' W 001°13'0 0.0
2015-Jul-19 08:33N 54°35' W 001°13'3 3.1
2015-Jul-19 07:33N 54°37' W 001°10'1 1.5
2015-Jul-19 06:33N 54°39' W 001°09'  

Dump ship's entire track history